Time;durP1;ratioP1;P1;durP2;ratioP2;P2;SDS_P1;SDS_P2;PMS_P1;PMS_P2;Temp;Humidity;BMP_temperature;BMP_pressure;BME280_temperature;BME280_humidity;BME280_pressure;Samples;Min_cycle;Max_cycle;Signal;HPM_P1;HPM_P2
2022/07/25 00:00:11;;;;;;;35.05;17.30;;;26.50;99.90;;;;;;5073625;28;20055;-67
2022/07/25 00:02:37;;;;;;;37.88;16.10;;;26.50;99.90;;;;;;5075306;28;20067;-67
2022/07/25 00:05:04;;;;;;;27.02;14.13;;;26.40;99.90;;;;;;5074829;28;20020;-67
2022/07/25 00:07:31;;;;;;;24.67;14.38;;;26.40;99.90;;;;;;5074790;28;20059;-66
2022/07/25 00:09:57;;;;;;;24.08;14.15;;;26.40;99.90;;;;;;5074604;28;20035;-66
2022/07/25 00:12:24;;;;;;;22.25;13.70;;;26.30;99.90;;;;;;5075423;28;20542;-66
2022/07/25 00:14:51;;;;;;;24.45;13.52;;;26.20;99.90;;;;;;5090358;28;20032;-67
2022/07/25 00:17:17;;;;;;;23.25;12.40;;;26.30;99.90;;;;;;5089058;28;20020;-67
2022/07/25 00:19:44;;;;;;;17.98;13.15;;;26.20;99.90;;;;;;5074526;28;20024;-66
2022/07/25 00:22:10;;;;;;;19.73;12.90;;;26.20;99.90;;;;;;5074507;28;20017;-66
2022/07/25 00:24:37;;;;;;;17.20;13.77;;;26.30;99.90;;;;;;5074180;28;20023;-67
2022/07/25 00:27:03;;;;;;;19.63;12.68;;;26.30;99.90;;;;;;5074384;28;20385;-66
2022/07/25 00:29:30;;;;;;;20.70;12.18;;;26.30;99.90;;;;;;5074356;28;20046;-66
2022/07/25 00:31:57;;;;;;;15.60;11.35;;;26.30;99.90;;;;;;5074055;28;20032;-67
2022/07/25 00:34:23;;;;;;;23.23;12.05;;;26.30;99.90;;;;;;5074177;28;20017;-67
2022/07/25 00:36:50;;;;;;;24.40;13.05;;;26.40;99.90;;;;;;5073984;28;20457;-66
2022/07/25 00:39:17;;;;;;;16.67;13.48;;;26.40;99.90;;;;;;5073708;28;20048;-66
2022/07/25 00:41:44;;;;;;;21.63;15.05;;;26.40;99.90;;;;;;5073329;28;20107;-67
2022/07/25 00:44:26;;;;;;;26.02;15.60;;;26.40;99.90;;;;;;5073982;28;20045;-66
2022/07/25 00:46:52;;;;;;;;;;;26.30;99.90;;;;;;5074261;28;20028;-67
2022/07/25 00:49:19;;;;;;;42.08;32.17;;;26.40;99.90;;;;;;5074006;28;19900;-67
2022/07/25 00:51:46;;;;;;;33.60;27.65;;;26.40;99.90;;;;;;5073902;28;20058;-66
2022/07/25 00:54:13;;;;;;;34.08;27.33;;;26.50;99.90;;;;;;5073675;28;20378;-67
2022/07/25 00:56:41;;;;;;;27.88;20.80;;;26.50;99.90;;;;;;5073778;28;20016;-66
2022/07/25 00:59:08;;;;;;;28.88;21.40;;;26.60;99.90;;;;;;5073761;28;20017;-67
2022/07/25 01:01:36;;;;;;;25.40;15.52;;;26.50;99.90;;;;;;5073690;28;20533;-67
2022/07/25 01:04:04;;;;;;;20.38;13.40;;;26.50;99.90;;;;;;5073781;28;20025;-67
2022/07/25 01:06:31;;;;;;;25.30;14.27;;;26.50;99.90;;;;;;5073720;28;20036;-67
2022/07/25 01:08:58;;;;;;;17.13;10.52;;;26.60;99.90;;;;;;5073579;28;20035;-67
2022/07/25 01:11:25;;;;;;;14.13;10.40;;;26.70;99.90;;;;;;5073675;28;20032;-67
2022/07/25 01:13:52;;;;;;;18.83;11.15;;;26.70;99.90;;;;;;5073602;28;20430;-67
2022/07/25 01:16:18;;;;;;;17.25;10.43;;;26.80;99.90;;;;;;5073361;28;20091;-67
2022/07/25 01:18:45;;;;;;;19.00;10.23;;;27.00;99.90;;;;;;5073485;28;20023;-67
2022/07/25 01:21:13;;;;;;;76.13;45.40;;;26.90;99.90;;;;;;5073499;28;20020;-67
2022/07/25 01:23:41;;;;;;;19.80;10.95;;;27.00;99.90;;;;;;5072494;28;20103;-67
2022/07/25 01:26:07;;;;;;;46.80;30.27;;;26.90;99.90;;;;;;5073460;28;20020;-67
2022/07/25 01:28:34;;;;;;;26.05;14.80;;;27.00;99.90;;;;;;5073403;28;20020;-67
2022/07/25 01:31:01;;;;;;;18.13;14.45;;;27.00;99.90;;;;;;5073195;28;20048;-67
2022/07/25 01:33:27;;;;;;;16.45;9.43;;;27.00;99.90;;;;;;5073178;28;20118;-66
2022/07/25 01:35:54;;;;;;;14.57;7.40;;;27.00;99.90;;;;;;5072692;28;20020;-67
2022/07/25 01:38:20;;;;;;;13.90;8.60;;;27.00;99.90;;;;;;5072373;28;20527;-67
2022/07/25 01:40:47;;;;;;;14.48;9.90;;;27.00;99.90;;;;;;5072433;28;20040;-66
2022/07/25 01:43:14;;;;;;;41.90;12.35;;;27.00;99.90;;;;;;5072780;28;20074;-68
2022/07/25 01:45:40;;;;;;;18.13;10.60;;;27.00;99.90;;;;;;5072734;28;20024;-68
2022/07/25 01:48:07;;;;;;;16.98;11.38;;;27.20;99.90;;;;;;5072733;28;20483;-69
2022/07/25 01:50:34;;;;;;;13.00;8.73;;;27.20;99.90;;;;;;5072827;28;20028;-68
2022/07/25 01:53:00;;;;;;;28.00;9.32;;;27.30;99.90;;;;;;5074556;28;20027;-69
2022/07/25 01:55:27;;;;;;;16.40;8.25;;;27.40;99.90;;;;;;5077272;28;20024;-68
2022/07/25 01:57:53;;;;;;;11.52;8.15;;;27.40;99.90;;;;;;5077196;28;20053;-69
2022/07/25 02:00:20;;;;;;;16.25;8.27;;;27.30;99.90;;;;;;5076946;28;20571;-69
2022/07/25 02:02:47;;;;;;;18.90;8.27;;;27.30;99.90;;;;;;5077228;28;20580;-66
2022/07/25 02:05:14;;;;;;;13.63;7.80;;;27.20;99.90;;;;;;5077011;28;20031;-66
2022/07/25 02:07:41;;;;;;;13.52;8.13;;;27.20;99.90;;;;;;5076971;28;20292;-66
2022/07/25 02:10:08;;;;;;;13.95;8.52;;;27.30;99.90;;;;;;5076891;28;20504;-68
2022/07/25 02:12:34;;;;;;;19.33;9.48;;;27.50;99.90;;;;;;5077141;28;20027;-67
2022/07/25 02:15:01;;;;;;;20.23;10.55;;;27.50;99.90;;;;;;5076861;28;20077;-67
2022/07/25 02:17:28;;;;;;;21.00;9.52;;;27.50;99.90;;;;;;5076944;28;20025;-67
2022/07/25 02:19:54;;;;;;;14.25;8.73;;;27.60;99.90;;;;;;5076878;28;20013;-66
2022/07/25 02:22:21;;;;;;;12.27;8.60;;;27.60;99.90;;;;;;5076646;28;20024;-67
2022/07/25 02:24:47;;;;;;;16.38;8.65;;;27.60;99.90;;;;;;5076510;28;20366;-67
2022/07/25 02:27:14;;;;;;;10.98;7.13;;;27.70;99.90;;;;;;5076601;28;20503;-67
2022/07/25 02:29:40;;;;;;;15.38;8.32;;;27.70;99.90;;;;;;5076456;28;20033;-67
2022/07/25 02:32:07;;;;;;;13.00;7.97;;;27.80;99.90;;;;;;5076235;28;20485;-67
2022/07/25 02:34:33;;;;;;;13.95;8.45;;;27.90;99.90;;;;;;5076506;28;20051;-67
2022/07/25 02:37:00;;;;;;;12.18;8.88;;;27.90;99.90;;;;;;5076205;28;20032;-67
2022/07/25 02:39:26;;;;;;;19.90;9.82;;;27.90;99.90;;;;;;5076078;28;20435;-67
2022/07/25 02:41:52;;;;;;;16.60;7.85;;;27.90;99.90;;;;;;5076620;28;20017;-67
2022/07/25 02:44:19;;;;;;;15.23;9.88;;;28.00;99.90;;;;;;5076341;28;20017;-66
2022/07/25 02:46:45;;;;;;;17.95;10.35;;;28.00;99.90;;;;;;5076006;28;20497;-66
2022/07/25 02:49:12;;;;;;;13.93;7.50;;;28.00;99.90;;;;;;5076129;28;20044;-67
2022/07/25 02:51:38;;;;;;;13.90;7.45;;;28.00;99.90;;;;;;5076227;28;20028;-67
2022/07/25 02:54:05;;;;;;;11.27;6.93;;;28.20;99.90;;;;;;5075980;28;20473;-67
2022/07/25 02:56:32;;;;;;;8.05;5.65;;;28.20;99.90;;;;;;5076043;28;20039;-66
2022/07/25 02:58:59;;;;;;;9.68;6.60;;;28.30;99.90;;;;;;5076122;28;20029;-66
2022/07/25 03:01:25;;;;;;;11.18;7.85;;;28.30;99.90;;;;;;5075703;28;20039;-66
2022/07/25 03:03:52;;;;;;;10.20;7.22;;;28.40;99.90;;;;;;5075395;28;20082;-65
2022/07/25 03:06:18;;;;;;;9.43;6.75;;;28.50;99.90;;;;;;5075346;28;20045;-66
2022/07/25 03:08:45;;;;;;;7.82;6.40;;;28.50;99.90;;;;;;5075534;28;20107;-67
2022/07/25 03:11:13;;;;;;;8.93;6.50;;;28.50;99.90;;;;;;5075632;28;20427;-67
2022/07/25 03:13:39;;;;;;;11.75;7.03;;;28.50;99.90;;;;;;5075634;28;20023;-64
2022/07/25 03:16:06;;;;;;;8.65;6.80;;;28.60;99.90;;;;;;5075402;28;20025;-65
2022/07/25 03:18:33;;;;;;;9.75;6.40;;;28.70;99.90;;;;;;5075711;28;20074;-68
2022/07/25 03:20:59;;;;;;;15.23;7.30;;;28.80;99.90;;;;;;5075664;28;20381;-66
2022/07/25 03:23:27;;;;;;;17.70;7.68;;;28.90;99.90;;;;;;5075596;28;20028;-66
2022/07/25 03:25:54;;;;;;;13.43;7.82;;;29.00;99.90;;;;;;5075651;28;20020;-66
2022/07/25 03:28:21;;;;;;;21.48;11.77;;;29.20;99.90;;;;;;5075458;28;20091;-66
2022/07/25 03:30:47;;;;;;;16.30;8.45;;;29.20;99.90;;;;;;5091709;28;20107;-66
2022/07/25 03:33:14;;;;;;;10.02;7.25;;;29.20;99.90;;;;;;5095399;28;20020;-65
2022/07/25 03:35:41;;;;;;;16.20;8.15;;;29.20;99.90;;;;;;5095219;28;20023;-65
2022/07/25 03:38:07;;;;;;;15.32;8.55;;;29.40;99.90;;;;;;5095112;28;20031;-68
2022/07/25 03:40:35;;;;;;;16.15;10.55;;;29.50;99.90;;;;;;5095243;28;20036;-70
2022/07/25 03:43:02;;;;;;;14.38;8.50;;;29.50;99.90;;;;;;5095384;28;20468;-69
2022/07/25 03:45:28;;;;;;;21.10;7.78;;;29.40;99.90;;;;;;5094472;28;20020;-66
2022/07/25 03:47:55;;;;;;;9.70;6.70;;;29.40;99.90;;;;;;5094144;28;20028;-66
2022/07/25 03:50:21;;;;;;;8.38;6.38;;;29.50;99.90;;;;;;5095166;28;20028;-66
2022/07/25 03:52:48;;;;;;;11.05;7.20;;;29.50;99.90;;;;;;5095197;28;20020;-72
2022/07/25 03:55:14;;;;;;;14.45;7.55;;;29.70;99.90;;;;;;5094967;28;20023;-71
2022/07/25 03:57:41;;;;;;;14.48;9.05;;;29.70;99.90;;;;;;5094892;28;20035;-71
2022/07/25 04:00:09;;;;;;;16.67;8.40;;;29.70;99.90;;;;;;5095042;28;20102;-74
2022/07/25 04:02:36;;;;;;;20.38;10.13;;;29.70;99.90;;;;;;5094743;28;20075;-71
2022/07/25 04:05:07;;;;;;;12.70;8.63;;;29.70;99.90;;;;;;5095073;28;20027;-69
2022/07/25 04:07:34;;;;;;;14.27;7.88;;;29.80;99.90;;;;;;5094788;28;20419;-65
2022/07/25 04:10:01;;;;;;;12.70;7.47;;;29.90;99.90;;;;;;5090773;28;20089;-67
2022/07/25 04:12:28;;;;;;;14.98;7.47;;;29.80;99.90;;;;;;5083473;28;20027;-66
2022/07/25 04:14:55;;;;;;;11.40;7.40;;;29.80;99.90;;;;;;5074594;28;20503;-66
2022/07/25 04:17:21;;;;;;;15.10;6.30;;;29.80;99.90;;;;;;5073145;28;20170;-67
2022/07/25 04:19:48;;;;;;;13.63;7.38;;;29.90;99.90;;;;;;5074301;28;20025;-66
2022/07/25 04:22:14;;;;;;;12.30;6.93;;;29.90;99.90;;;;;;5074141;28;20179;-66
2022/07/25 04:24:41;;;;;;;11.95;7.25;;;30.00;99.90;;;;;;5074179;28;20024;-66
2022/07/25 04:27:07;;;;;;;12.52;7.93;;;30.00;99.90;;;;;;5074241;28;20060;-67
2022/07/25 04:29:34;;;;;;;11.57;6.47;;;30.10;99.90;;;;;;5074285;28;20024;-66
2022/07/25 04:32:00;;;;;;;16.15;6.55;;;30.30;99.90;;;;;;5074149;28;20033;-66
2022/07/25 04:34:27;;;;;;;8.18;5.22;;;30.30;99.90;;;;;;5074294;28;20485;-67
2022/07/25 04:36:53;;;;;;;7.35;5.40;;;30.30;99.90;;;;;;5074234;28;20039;-66
2022/07/25 04:39:20;;;;;;;8.68;5.80;;;30.50;99.90;;;;;;5073951;28;20037;-66
2022/07/25 04:41:47;;;;;;;8.27;5.90;;;30.60;99.90;;;;;;5073919;28;20020;-66
2022/07/25 04:44:13;;;;;;;11.40;5.90;;;30.70;99.90;;;;;;5073993;28;20024;-67
2022/07/25 04:46:40;;;;;;;13.98;6.43;;;30.80;99.90;;;;;;5074017;28;20028;-66
2022/07/25 04:49:07;;;;;;;13.35;7.10;;;30.80;99.90;;;;;;5073842;28;20028;-68
2022/07/25 04:51:34;;;;;;;15.20;6.72;;;30.80;99.90;;;;;;5075268;28;20060;-67
2022/07/25 04:54:01;;;;;;;11.50;7.03;;;30.80;99.90;;;;;;5081771;28;20024;-67
2022/07/25 04:56:27;;;;;;;9.75;6.43;;;30.90;99.90;;;;;;5073676;28;20029;-66
2022/07/25 04:58:54;;;;;;;10.23;6.32;;;30.90;99.90;;;;;;5073773;28;20025;-66
2022/07/25 05:01:20;;;;;;;11.40;5.97;;;31.00;99.90;;;;;;5075368;28;20020;-67
2022/07/25 05:03:47;;;;;;;10.85;6.20;;;31.00;99.90;;;;;;5093869;28;20024;-67
2022/07/25 05:06:13;;;;;;;13.30;6.40;;;31.00;99.90;;;;;;5093878;28;20059;-66
2022/07/25 05:08:40;;;;;;;13.20;6.90;;;31.00;99.90;;;;;;5093803;28;20105;-67
2022/07/25 05:11:06;;;;;;;21.27;5.97;;;31.00;99.90;;;;;;5077070;28;20021;-67
2022/07/25 05:13:33;;;;;;;14.60;6.57;;;31.20;99.90;;;;;;5073776;28;20023;-67
2022/07/25 05:15:59;;;;;;;7.93;5.90;;;31.30;99.90;;;;;;5073569;28;20013;-67
2022/07/25 05:18:26;;;;;;;11.55;6.15;;;31.30;99.90;;;;;;5073202;28;20385;-67
2022/07/25 05:20:53;;;;;;;131.18;96.68;;;31.20;99.90;;;;;;5073471;28;20024;-66
2022/07/25 05:23:19;;;;;;;72.38;52.28;;;31.40;99.90;;;;;;5088868;28;20030;-67
2022/07/25 05:25:46;;;;;;;11.77;7.30;;;31.50;99.90;;;;;;5092458;28;20069;-68
2022/07/25 05:28:13;;;;;;;11.07;6.80;;;31.50;99.90;;;;;;5089706;28;20028;-67
2022/07/25 05:30:40;;;;;;;9.52;6.18;;;31.40;99.90;;;;;;5092244;28;20028;-66
2022/07/25 05:33:06;;;;;;;10.27;6.10;;;31.50;99.90;;;;;;5092165;28;20137;-68
2022/07/25 05:35:33;;;;;;;23.73;19.15;;;31.50;99.90;;;;;;5091840;28;20035;-66
2022/07/25 05:38:02;;;;;;;13.52;5.97;;;31.60;99.90;;;;;;5092074;28;21132;-67
2022/07/25 05:40:29;;;;;;;9.10;5.93;;;31.70;99.90;;;;;;5091152;28;20093;-66
2022/07/25 05:42:56;;;;;;;10.48;7.00;;;31.70;99.90;;;;;;5093102;28;20020;-68
2022/07/25 05:45:22;;;;;;;16.30;7.10;;;31.60;99.90;;;;;;5093286;28;20024;-65
2022/07/25 05:47:49;;;;;;;8.68;5.93;;;31.60;99.90;;;;;;5093105;28;20085;-67
2022/07/25 05:50:15;;;;;;;38.58;25.40;;;31.60;99.90;;;;;;5093477;28;20020;-68
2022/07/25 05:52:42;;;;;;;33.10;24.27;;;31.60;99.90;;;;;;5093331;28;20036;-65
2022/07/25 05:55:09;;;;;;;10.68;7.30;;;31.60;99.90;;;;;;5093218;28;20032;-67
2022/07/25 05:57:35;;;;;;;18.90;11.02;;;31.60;99.90;;;;;;5093226;28;20064;-65
2022/07/25 06:00:05;;;;;;;13.73;7.22;;;31.70;99.90;;;;;;5093106;28;20036;-65
2022/07/25 06:02:31;;;;;;;19.13;12.35;;;31.80;99.90;;;;;;5092925;28;20020;-65
2022/07/25 06:04:58;;;;;;;18.67;12.77;;;32.00;99.90;;;;;;5092994;28;20020;-65
2022/07/25 06:07:25;;;;;;;57.83;34.88;;;31.90;99.90;;;;;;5092863;28;20079;-66
2022/07/25 06:09:52;;;;;;;20.27;11.00;;;32.00;99.90;;;;;;5092996;28;20024;-66
2022/07/25 06:12:18;;;;;;;10.52;7.65;;;32.00;99.90;;;;;;5092707;28;20024;-66
2022/07/25 06:14:45;;;;;;;12.52;6.55;;;31.90;99.90;;;;;;5092587;28;20393;-67
2022/07/25 06:17:11;;;;;;;8.57;5.43;;;31.90;99.90;;;;;;5092730;28;20478;-66
2022/07/25 06:19:38;;;;;;;7.55;5.22;;;31.80;99.90;;;;;;5093005;28;20039;-67
2022/07/25 06:22:04;;;;;;;15.88;7.07;;;31.70;99.90;;;;;;5092653;28;20107;-67
2022/07/25 06:24:31;;;;;;;7.65;5.85;;;31.70;99.90;;;;;;5092761;28;20047;-69
2022/07/25 06:26:57;;;;;;;7.75;5.55;;;31.70;99.90;;;;;;5088192;28;20048;-67
2022/07/25 06:29:24;;;;;;;10.43;5.65;;;31.70;99.90;;;;;;5072813;28;20473;-67
2022/07/25 06:31:50;;;;;;;9.85;6.78;;;31.90;99.90;;;;;;5072620;28;20470;-67
2022/07/25 06:34:17;;;;;;;10.60;6.57;;;31.90;99.90;;;;;;5072408;28;20032;-67
2022/07/25 06:36:43;;;;;;;14.88;7.10;;;31.90;99.90;;;;;;5072547;28;20043;-66
2022/07/25 06:39:10;;;;;;;10.55;6.50;;;32.00;99.90;;;;;;5072667;28;20385;-66
2022/07/25 06:41:37;;;;;;;17.50;7.80;;;32.20;99.90;;;;;;5075944;28;20071;-67
2022/07/25 06:44:04;;;;;;;17.52;8.13;;;32.20;99.90;;;;;;5076524;28;20048;-67
2022/07/25 06:46:31;;;;;;;17.90;13.13;;;32.30;99.90;;;;;;5076163;28;20028;-66
2022/07/25 06:48:58;;;;;;;13.80;7.68;;;32.40;99.90;;;;;;5076451;28;20099;-67
2022/07/25 06:51:25;;;;;;;19.67;12.20;;;32.40;99.90;;;;;;5076187;28;20071;-67
2022/07/25 06:53:52;;;;;;;16.58;7.38;;;32.50;99.90;;;;;;5076147;28;20469;-67
2022/07/25 06:56:18;;;;;;;14.57;6.43;;;32.60;99.90;;;;;;5075887;28;20028;-67
2022/07/25 06:58:45;;;;;;;20.10;14.68;;;32.50;99.90;;;;;;5076079;28;20457;-66
2022/07/25 07:01:11;;;;;;;25.30;17.95;;;32.40;99.90;;;;;;5076068;28;20031;-66
2022/07/25 07:03:39;;;;;;;17.40;13.70;;;32.60;99.90;;;;;;5075814;28;20020;-68
2022/07/25 07:06:08;;;;;;;10.30;6.60;;;32.50;99.90;;;;;;5075998;28;20029;-68
2022/07/25 07:08:35;;;;;;;9.35;6.00;;;32.40;99.90;;;;;;5075854;28;20078;-67
2022/07/25 07:11:01;;;;;;;16.70;8.20;;;32.40;99.90;;;;;;5075082;28;20012;-67
2022/07/25 07:13:28;;;;;;;13.07;6.35;;;32.30;99.90;;;;;;5075926;28;20433;-67
2022/07/25 07:15:54;;;;;;;13.77;7.07;;;32.20;99.90;;;;;;5075679;28;20100;-67
2022/07/25 07:18:21;;;;;;;9.48;6.88;;;32.10;99.90;;;;;;5075453;28;20472;-67
2022/07/25 07:20:48;;;;;;;10.05;6.43;;;32.10;99.90;;;;;;5075540;28;20024;-68
2022/07/25 07:23:15;;;;;;;14.05;6.68;;;32.10;99.90;;;;;;5075481;28;20534;-68
2022/07/25 07:25:41;;;;;;;9.57;6.05;;;32.00;99.90;;;;;;5075247;28;20024;-68
2022/07/25 07:28:08;;;;;;;10.82;7.20;;;32.00;99.90;;;;;;5075471;28;20465;-68
2022/07/25 07:30:34;;;;;;;17.40;8.07;;;32.00;99.90;;;;;;5075299;28;20033;-69
2022/07/25 07:33:01;;;;;;;13.30;6.40;;;32.00;99.90;;;;;;5075268;28;20047;-69
2022/07/25 07:35:28;;;;;;;8.18;6.63;;;32.10;99.90;;;;;;5075367;28;20215;-68
2022/07/25 07:37:54;;;;;;;10.25;6.60;;;32.10;99.90;;;;;;5075184;28;20029;-68
2022/07/25 07:40:22;;;;;;;9.18;5.55;;;32.00;99.90;;;;;;5074799;28;20036;-66
2022/07/25 07:42:49;;;;;;;13.10;7.38;;;32.10;99.90;;;;;;5075240;28;20013;-68
2022/07/25 07:45:18;;;;;;;13.45;8.30;;;32.10;99.90;;;;;;5075251;28;20021;-67
2022/07/25 07:47:47;;;;;;;15.05;9.00;;;32.00;99.90;;;;;;5074929;28;20021;-68
2022/07/25 07:50:16;;;;;;;17.83;11.63;;;31.90;99.90;;;;;;5074824;28;20056;-69
2022/07/25 07:52:43;;;;;;;22.00;12.02;;;31.70;99.90;;;;;;5075047;28;20028;-67
2022/07/25 07:57:58;;;;;;;24.77;13.02;;;31.30;99.90;;;;;;5074766;28;20044;-67
2022/07/25 08:00:26;;;;;;;33.67;17.52;;;31.10;99.90;;;;;;5074791;28;20090;-67
2022/07/25 08:02:54;;;;;;;23.50;13.70;;;30.90;99.90;;;;;;5074290;28;20024;-66
2022/07/25 08:05:22;;;;;;;21.85;12.43;;;30.70;99.90;;;;;;5092667;28;20095;-66
2022/07/25 08:07:50;;;;;;;22.80;11.55;;;30.40;99.90;;;;;;5091914;28;20034;-67
2022/07/25 08:10:22;;;;;;;17.48;9.68;;;30.30;99.90;;;;;;5094032;28;20020;-66
2022/07/25 08:12:49;;;;;;;18.73;9.68;;;29.90;99.90;;;;;;5092418;28;20035;-65
2022/07/25 08:15:17;;;;;;;22.52;10.48;;;29.70;99.90;;;;;;5094502;28;20028;-65
2022/07/25 08:17:44;;;;;;;21.58;13.48;;;29.70;99.90;;;;;;5094607;28;20028;-64
2022/07/25 08:20:12;;;;;;;26.45;14.15;;;29.50;99.90;;;;;;5094531;28;20019;-65
2022/07/25 08:22:42;;;;;;;23.00;10.02;;;29.40;99.90;;;;;;5093959;28;20030;-64
2022/07/25 08:25:14;;;;;;;22.42;13.30;;;29.30;99.90;;;;;;5091811;28;20016;-65
2022/07/25 08:27:40;;;;;;;18.83;11.65;;;29.10;99.90;;;;;;5094274;28;20107;-64
2022/07/25 08:30:08;;;;;;;59.63;13.60;;;28.90;99.90;;;;;;5094147;28;20442;-64
2022/07/25 08:32:44;;;;;;;26.00;16.38;;;28.70;99.90;;;;;;5094418;28;20469;-64
2022/07/25 08:35:11;;;;;;;12.18;9.02;;;28.60;99.90;;;;;;5092477;28;20107;-64
2022/07/25 08:37:38;;;;;;;16.48;10.93;;;28.50;99.90;;;;;;5094883;28;20027;-65
2022/07/25 08:40:05;;;;;;;17.30;11.55;;;28.40;99.90;;;;;;5089328;28;20028;-65
2022/07/25 08:42:33;;;;;;;54.33;38.92;;;28.30;99.90;;;;;;5092397;28;20020;-65
2022/07/25 08:45:04;;;;;;;66.85;45.30;;;28.30;99.90;;;;;;5093950;28;20036;-65
2022/07/25 08:47:31;;;;;;;26.52;19.77;;;28.40;99.90;;;;;;5091490;28;20499;-65
2022/07/25 08:49:58;;;;;;;19.20;12.65;;;28.50;99.90;;;;;;5093831;28;20441;-65
2022/07/25 08:52:26;;;;;;;96.80;68.65;;;28.50;99.90;;;;;;5093043;28;20300;-67
2022/07/25 08:54:53;;;;;;;44.97;33.45;;;28.40;99.90;;;;;;5093154;28;20061;-64
2022/07/25 08:57:19;;;;;;;28.63;20.77;;;28.30;99.90;;;;;;5093117;28;20449;-65
2022/07/25 08:59:46;;;;;;;19.98;12.63;;;28.10;99.90;;;;;;5093768;28;20034;-63
2022/07/25 09:02:14;;;;;;;20.23;12.85;;;28.00;99.90;;;;;;5093949;28;20020;-64
2022/07/25 09:04:42;;;;;;;20.70;11.32;;;28.10;99.90;;;;;;5094244;28;20032;-65
2022/07/25 09:07:09;;;;;;;14.00;9.63;;;28.10;99.90;;;;;;5094660;28;20103;-63
2022/07/25 09:09:37;;;;;;;15.63;10.80;;;28.10;99.90;;;;;;5095364;28;20024;-65
2022/07/25 09:12:06;;;;;;;16.33;9.43;;;28.10;99.90;;;;;;5094957;28;20024;-64
2022/07/25 09:14:43;;;;;;;11.65;9.10;;;28.10;99.90;;;;;;5094971;28;20024;-64
2022/07/25 09:17:10;;;;;;;19.88;9.40;;;28.00;99.90;;;;;;5092349;28;20020;-64
2022/07/25 09:19:36;;;;;;;12.50;9.25;;;28.10;99.90;;;;;;5094683;28;20451;-64
2022/07/25 09:22:07;;;;;;;16.17;9.13;;;28.10;99.90;;;;;;5092387;28;20023;-65
2022/07/25 09:24:34;;;;;;;15.50;10.68;;;28.10;99.90;;;;;;5092019;28;20024;-64
2022/07/25 09:27:08;;;;;;;16.52;9.80;;;28.10;99.90;;;;;;5094240;28;20028;-65
2022/07/25 09:29:37;;;;;;;14.60;8.98;;;28.10;99.90;;;;;;5094157;28;20323;-64
2022/07/25 09:32:14;;;;;;;11.10;8.57;;;28.10;99.90;;;;;;5094002;28;20028;-63
2022/07/25 09:34:43;;;;;;;14.95;8.75;;;28.10;99.90;;;;;;5094234;28;20032;-64
2022/07/25 09:37:11;;;;;;;22.33;9.43;;;28.10;99.90;;;;;;5091778;28;20106;-67
2022/07/25 09:39:40;;;;;;;16.08;10.52;;;28.20;99.90;;;;;;5091042;28;20024;-67
2022/07/25 09:42:28;;;;;;;17.52;12.68;;;28.40;99.90;;;;;;5089856;28;20107;-66
2022/07/25 09:45:06;;;;;;;21.05;14.30;;;28.60;99.90;;;;;;5090147;28;20177;-67
2022/07/25 09:47:36;;;;;;;21.77;15.32;;;28.60;99.90;;;;;;5083900;28;20071;-66
2022/07/25 09:50:04;;;;;;;22.40;15.65;;;28.60;99.90;;;;;;5092550;28;20089;-67
2022/07/25 09:52:32;;;;;;;31.10;21.50;;;28.50;99.90;;;;;;5089924;28;20039;-67
2022/07/25 09:55:02;;;;;;;47.83;34.50;;;28.50;99.90;;;;;;5092484;28;20020;-67
2022/07/25 09:57:29;;;;;;;32.85;22.33;;;28.60;99.90;;;;;;5092343;28;20085;-67
2022/07/25 09:59:58;;;;;;;26.10;18.35;;;28.60;99.90;;;;;;5092638;28;20017;-67
2022/07/25 10:02:48;;;;;;;26.13;19.00;;;28.60;99.90;;;;;;5092525;28;20511;-67
2022/07/25 10:05:37;;;;;;;27.33;18.10;;;28.70;99.90;;;;;;5093133;28;20032;-67
2022/07/25 10:08:07;;;;;;;24.27;17.77;;;28.70;99.90;;;;;;5093380;28;20031;-67
2022/07/25 10:10:38;;;;;;;22.38;16.70;;;28.60;99.90;;;;;;5093220;28;20028;-67
2022/07/25 10:13:09;;;;;;;23.77;15.65;;;28.60;99.90;;;;;;5089338;28;20384;-67
2022/07/25 10:15:47;;;;;;;24.95;16.63;;;28.40;99.90;;;;;;5082792;28;20032;-68
2022/07/25 10:18:16;;;;;;;23.92;17.05;;;28.30;99.90;;;;;;5093138;28;20023;-65
2022/07/25 10:20:44;;;;;;;31.80;19.42;;;28.20;99.90;;;;;;5080319;28;20483;-68
2022/07/25 10:23:24;;;;;;;31.08;20.80;;;28.20;99.90;;;;;;5077167;28;20024;-66
2022/07/25 10:26:14;;;;;;;25.08;21.05;;;28.10;99.90;;;;;;5076716;28;20028;-66
2022/07/25 10:28:46;;;;;;;24.60;18.95;;;28.10;99.90;;;;;;5076788;28;20457;-67
2022/07/25 10:31:21;;;;;;;27.38;20.25;;;28.10;99.90;;;;;;5097208;28;20028;-67
2022/07/25 10:33:57;;;;;;;25.08;17.83;;;28.10;99.90;;;;;;5097804;28;20028;-68
2022/07/25 10:36:28;;;;;;;23.48;18.70;;;28.10;99.90;;;;;;5097076;28;20357;-68
2022/07/25 10:38:59;;;;;;;25.23;19.70;;;28.20;99.90;;;;;;5097670;28;20020;-68
2022/07/25 10:41:27;;;;;;;31.33;20.15;;;28.30;99.90;;;;;;5096084;28;20268;-68
2022/07/25 10:44:00;;;;;;;71.90;54.53;;;28.20;99.90;;;;;;5097156;28;20020;-66
2022/07/25 10:46:29;;;;;;;339.10;238.00;;;28.20;99.90;;;;;;5097000;28;20095;-68
2022/07/25 10:49:03;;;;;;;162.57;113.00;;;28.20;99.90;;;;;;5096863;28;20028;-67
2022/07/25 10:51:33;;;;;;;71.75;51.42;;;28.10;99.90;;;;;;5096590;28;20028;-68
2022/07/25 10:54:10;;;;;;;21.60;14.55;;;28.20;99.90;;;;;;5096697;28;20016;-67
2022/07/25 10:56:37;;;;;;;27.13;17.83;;;28.10;99.90;;;;;;5096944;28;20055;-68
2022/07/25 10:59:03;;;;;;;34.40;24.95;;;28.10;99.90;;;;;;5096672;28;20020;-68
2022/07/25 11:01:33;;;;;;;35.33;23.63;;;28.10;99.90;;;;;;5096581;28;20095;-68
2022/07/25 11:04:03;;;;;;;29.98;16.73;;;28.10;99.90;;;;;;5096524;28;20419;-68
2022/07/25 11:06:34;;;;;;;17.02;13.00;;;28.00;99.90;;;;;;5090280;28;20380;-69
2022/07/25 11:09:12;;;;;;;20.13;14.80;;;27.90;99.90;;;;;;5079555;28;20027;-70
2022/07/25 11:11:47;;;;;;;23.55;15.85;;;27.90;99.90;;;;;;5079053;28;20107;-69
2022/07/25 11:14:21;;;;;;;32.28;18.58;;;27.90;99.90;;;;;;5078232;28;20029;-69
2022/07/25 11:16:51;;;;;;;26.02;17.92;;;27.90;99.90;;;;;;5096274;28;20035;-69
2022/07/25 11:19:21;;;;;;;25.48;17.58;;;28.00;99.90;;;;;;5096106;28;20023;-69
2022/07/25 11:21:51;;;;;;;28.73;18.38;;;28.10;99.90;;;;;;5096124;28;20020;-69
2022/07/25 11:24:18;;;;;;;26.85;17.00;;;28.20;99.90;;;;;;5095875;28;20012;-69
2022/07/25 11:26:49;;;;;;;23.98;16.65;;;28.20;99.90;;;;;;5095132;28;20034;-70
2022/07/25 11:29:19;;;;;;;21.48;15.27;;;28.20;99.90;;;;;;5095840;28;20111;-70
2022/07/25 11:31:53;;;;;;;18.83;13.60;;;28.10;99.90;;;;;;5095737;28;20035;-70
2022/07/25 11:34:24;;;;;;;16.35;13.63;;;28.10;99.90;;;;;;5093134;28;20427;-70
2022/07/25 11:36:55;;;;;;;19.13;14.40;;;28.00;99.90;;;;;;5082593;28;20497;-70
2022/07/25 11:39:25;;;;;;;20.63;14.02;;;28.00;99.90;;;;;;5075402;28;20025;-71
2022/07/25 11:42:05;;;;;;;20.15;15.35;;;28.10;99.90;;;;;;5075200;28;20044;-72
2022/07/25 11:44:37;;;;;;;21.50;15.25;;;28.10;99.90;;;;;;5075229;28;20104;-68
2022/07/25 11:47:06;;;;;;;22.38;15.60;;;28.00;99.90;;;;;;5084212;28;20032;-70
2022/07/25 11:49:51;;;;;;;25.35;17.88;;;27.90;99.90;;;;;;5094436;28;20043;-70
2022/07/25 11:52:32;;;;;;;29.35;17.38;;;27.90;99.90;;;;;;5093623;28;20024;-70
2022/07/25 11:55:01;;;;;;;23.83;16.02;;;27.90;99.90;;;;;;5094475;28;20455;-71
2022/07/25 11:57:30;;;;;;;25.35;17.88;;;28.00;99.90;;;;;;5094383;28;20032;-70
2022/07/25 11:59:59;;;;;;;28.67;18.65;;;28.00;99.90;;;;;;5094546;28;20024;-72
2022/07/25 12:02:29;;;;;;;22.83;17.63;;;27.90;99.90;;;;;;5094227;28;20012;-69
2022/07/25 12:04:58;;;;;;;28.92;19.05;;;27.90;99.90;;;;;;5094497;28;20055;-69
2022/07/25 12:07:45;;;;;;;23.30;16.98;;;27.90;99.90;;;;;;5092025;28;20023;-70
2022/07/25 12:10:17;;;;;;;24.70;15.73;;;28.00;99.90;;;;;;5092780;28;20373;-68
2022/07/25 12:12:43;;;;;;;20.30;15.02;;;27.90;99.90;;;;;;5091584;28;20024;-68
2022/07/25 12:15:12;;;;;;;22.77;15.88;;;27.90;99.90;;;;;;5094739;28;20047;-68
2022/07/25 12:17:42;;;;;;;19.75;15.60;;;27.90;99.90;;;;;;5094818;28;20056;-68
2022/07/25 12:20:14;;;;;;;25.02;17.10;;;27.90;99.90;;;;;;5093284;28;20404;-69
2022/07/25 12:22:40;;;;;;;;;;;27.90;99.90;;;;;;5095219;28;20389;-68
2022/07/25 12:25:08;;;;;;;23.67;17.02;;;27.80;99.90;;;;;;5094903;28;19904;-69
2022/07/25 12:27:34;;;;;;;23.45;16.63;;;27.80;99.90;;;;;;5094811;28;20468;-68
2022/07/25 12:30:01;;;;;;;26.98;20.70;;;27.80;99.90;;;;;;5094778;28;20028;-76
2022/07/25 12:32:27;;;;;;;25.60;18.45;;;27.90;99.90;;;;;;5094924;28;20038;-75
2022/07/25 12:34:54;;;;;;;25.15;18.92;;;28.00;99.90;;;;;;5093066;28;20438;-75
2022/07/25 12:37:20;;;;;;;58.08;44.35;;;28.00;99.90;;;;;;5093387;28;20085;-74
2022/07/25 12:39:48;;;;;;;51.97;40.17;;;28.00;99.90;;;;;;5094261;28;20016;-68